Time;durP1;ratioP1;P1;durP2;ratioP2;P2;SDS_P1;SDS_P2;PMS_P1;PMS_P2;Temp;Humidity;BMP_temperature;BMP_pressure;BME280_temperature;BME280_humidity;BME280_pressure;Samples;Min_cycle;Max_cycle;Signal;HPM_P1;HPM_P2
2023/09/09 00:01:06;;;;;;;10.35;7.47;;;;;;;18.21;65.75;98336.59;4881052;29;20048;-73
2023/09/09 00:03:32;;;;;;;9.50;7.72;;;;;;;18.22;65.66;98335.53;4896981;29;20028;-73
2023/09/09 00:05:57;;;;;;;8.35;7.53;;;;;;;18.11;65.30;98318.44;4881947;29;20179;-73
2023/09/09 00:08:22;;;;;;;10.30;7.85;;;;;;;18.13;65.52;98323.63;4897348;29;20032;-74
2023/09/09 00:13:23;;;;;;;9.73;7.75;;;;;;;18.03;65.45;98318.28;5094083;23;20084;-72
2023/09/09 00:15:53;;;;;;;8.73;7.75;;;;;;;17.99;65.56;98328.16;4977709;28;20058;-71
2023/09/09 00:18:18;;;;;;;9.40;8.48;;;;;;;17.88;66.08;98328.25;4944673;28;20022;-71
2023/09/09 00:20:44;;;;;;;12.15;8.05;;;;;;;17.85;66.06;98326.09;4973803;28;20541;-74
2023/09/09 00:23:10;;;;;;;9.40;8.50;;;;;;;17.78;66.28;98320.16;4956025;28;20034;-71
2023/09/09 00:25:36;;;;;;;8.50;7.13;;;;;;;17.83;66.24;98333.75;4956897;28;20402;-71
2023/09/09 00:28:02;;;;;;;8.82;6.82;;;;;;;17.82;66.46;98334.84;4956742;28;20470;-71
2023/09/09 00:30:28;;;;;;;10.57;8.57;;;;;;;17.81;66.19;98333.22;4958550;28;20047;-71
2023/09/09 00:32:53;;;;;;;10.95;8.02;;;;;;;17.76;66.33;98330.53;4956577;28;20041;-72
2023/09/09 00:35:19;;;;;;;11.98;8.07;;;;;;;17.67;66.73;98326.81;4956524;28;20092;-72
2023/09/09 00:37:45;;;;;;;11.20;8.25;;;;;;;17.63;67.15;98319.50;4973977;28;20026;-72
2023/09/09 00:40:11;;;;;;;9.18;7.45;;;;;;;17.70;66.88;98325.44;4940389;28;20038;-71
2023/09/09 00:42:36;;;;;;;9.10;8.20;;;;;;;17.68;66.86;98327.63;4939926;28;20045;-71
2023/09/09 00:45:02;;;;;;;9.40;8.25;;;;;;;17.66;66.95;98329.84;4937386;28;20039;-72
2023/09/09 00:47:27;;;;;;;10.90;8.65;;;;;;;17.53;67.04;98319.59;4957334;28;20037;-71
2023/09/09 00:49:53;;;;;;;8.60;7.63;;;;;;;17.62;67.26;98324.13;4956228;28;20098;-72
2023/09/09 00:52:18;;;;;;;8.95;8.05;;;;;;;17.58;67.20;98323.09;4936770;29;20030;-72
2023/09/09 00:54:45;;;;;;;9.68;8.45;;;;;;;17.56;67.29;98328.03;4950340;28;20038;-72
2023/09/09 00:57:11;;;;;;;8.90;8.00;;;;;;;17.56;67.65;98321.75;4956183;28;20062;-72
2023/09/09 00:59:38;;;;;;;8.73;7.82;;;;;;;17.39;67.25;98303.06;4936988;29;20035;-72
2023/09/09 01:02:03;;;;;;;9.05;7.88;;;;;;;17.52;67.33;98323.44;4924636;29;20506;-72
2023/09/09 01:04:30;;;;;;;9.70;7.97;;;;;;;17.47;67.28;98321.53;4937674;28;20124;-72
2023/09/09 01:06:57;;;;;;;8.77;7.88;;;;;;;17.33;67.19;98315.13;4956171;28;20031;-71
2023/09/09 01:09:22;;;;;;;10.07;8.30;;;;;;;17.28;67.42;98312.44;4956122;28;20038;-74
2023/09/09 01:11:48;;;;;;;9.70;8.43;;;;;;;17.27;67.76;98310.78;4955497;28;20057;-72
2023/09/09 01:14:14;;;;;;;9.60;8.50;;;;;;;17.28;67.80;98309.72;4943059;28;20170;-72
2023/09/09 01:16:40;;;;;;;10.93;8.57;;;;;;;17.17;67.84;98300.81;4955939;28;20143;-72
2023/09/09 01:19:08;;;;;;;10.35;9.02;;;;;;;17.14;67.63;98306.81;4955980;28;20042;-72
2023/09/09 01:21:34;;;;;;;9.75;8.63;;;;;;;17.20;68.05;98323.91;4955690;28;20033;-72
2023/09/09 01:24:00;;;;;;;10.27;8.45;;;;;;;17.10;68.12;98310.41;4959584;28;20031;-71
2023/09/09 01:26:26;;;;;;;10.38;8.38;;;;;;;17.13;68.38;98315.25;4955915;28;20529;-72
2023/09/09 01:28:51;;;;;;;9.48;8.48;;;;;;;17.02;68.36;98303.66;4938641;28;20063;-72
2023/09/09 01:31:17;;;;;;;10.20;8.70;;;;;;;17.07;68.48;98306.34;4955479;28;20394;-72
2023/09/09 01:33:42;;;;;;;9.68;8.35;;;;;;;17.09;68.38;98314.22;4955303;28;20046;-72
2023/09/09 01:36:09;;;;;;;9.80;8.63;;;;;;;17.07;68.47;98310.97;4955787;28;20018;-71
2023/09/09 01:38:35;;;;;;;8.70;7.70;;;;;;;16.96;68.57;98303.97;4939910;28;20034;-71
2023/09/09 01:41:02;;;;;;;10.27;8.70;;;;;;;16.95;68.59;98300.44;4939654;28;20553;-71
2023/09/09 01:43:28;;;;;;;10.00;9.00;;;;;;;16.99;68.56;98314.31;4972829;28;20050;-71
2023/09/09 01:45:54;;;;;;;11.70;10.00;;;;;;;16.89;68.44;98312.47;4936741;29;20031;-72
2023/09/09 01:48:19;;;;;;;11.05;10.05;;;;;;;16.82;69.33;98308.41;4935611;28;20073;-72
2023/09/09 01:50:45;;;;;;;11.07;9.90;;;;;;;16.77;69.85;98316.59;4939356;28;20022;-72
2023/09/09 01:53:11;;;;;;;11.18;9.48;;;;;;;16.71;69.83;98313.09;4955368;28;20046;-71
2023/09/09 01:55:37;;;;;;;9.82;8.82;;;;;;;16.70;69.84;98318.81;4939658;28;20466;-72
2023/09/09 01:58:02;;;;;;;10.43;9.30;;;;;;;16.59;69.75;98307.19;4943936;28;20062;-72
2023/09/09 02:00:29;;;;;;;12.00;10.43;;;;;;;16.61;69.68;98310.44;4939422;28;20698;-71
2023/09/09 02:02:55;;;;;;;12.32;10.80;;;;;;;16.57;70.52;98314.78;4938595;28;20604;-72
2023/09/09 02:05:20;;;;;;;10.98;9.88;;;;;;;16.52;71.04;98321.06;4939733;28;20023;-71
2023/09/09 02:07:45;;;;;;;10.35;9.25;;;;;;;16.37;70.62;98287.69;4938288;28;20594;-71
2023/09/09 02:10:11;;;;;;;11.10;9.15;;;;;;;16.52;70.59;98320.28;4955637;28;20037;-71
2023/09/09 02:12:36;;;;;;;10.20;8.93;;;;;;;16.38;70.53;98298.28;4955004;28;20491;-71
2023/09/09 02:15:02;;;;;;;10.20;8.95;;;;;;;16.46;70.42;98322.16;4955621;28;20023;-72
2023/09/09 02:17:31;;;;;;;11.32;8.90;;;;;;;16.47;70.29;98323.00;4940077;28;20039;-71
2023/09/09 02:19:56;;;;;;;10.35;9.27;;;;;;;16.47;70.26;98323.00;4939637;28;20097;-72
2023/09/09 02:22:23;;;;;;;10.32;9.05;;;;;;;16.47;70.06;98323.81;4939175;28;20175;-72
2023/09/09 02:24:54;;;;;;;10.32;9.13;;;;;;;16.34;69.93;98308.09;4936055;29;20545;-72
2023/09/09 02:27:19;;;;;;;11.80;10.02;;;;;;;16.42;70.06;98326.53;4970699;28;20068;-72
2023/09/09 02:29:45;;;;;;;11.68;10.48;;;;;;;16.37;70.50;98318.41;4955610;28;20030;-72
2023/09/09 02:32:12;;;;;;;10.15;9.15;;;;;;;16.24;70.74;98297.25;4939334;28;20035;-72
2023/09/09 02:34:38;;;;;;;10.80;9.80;;;;;;;16.29;70.94;98310.81;4923795;28;20094;-72
2023/09/09 02:37:14;;;;;;;13.60;9.85;;;;;;;16.28;70.30;98314.66;4936146;29;20494;-72
2023/09/09 02:39:41;;;;;;;10.55;9.02;;;;;;;16.29;70.51;98320.91;4936621;29;20121;-72
2023/09/09 02:42:07;;;;;;;11.73;9.60;;;;;;;16.33;70.86;98321.97;4939052;28;20058;-72
2023/09/09 02:44:32;;;;;;;11.27;9.70;;;;;;;16.25;70.23;98319.81;4939145;28;20077;-72
2023/09/09 02:46:57;;;;;;;12.43;9.98;;;;;;;16.27;70.76;98323.88;4942756;28;20031;-72
2023/09/09 02:49:23;;;;;;;11.73;10.55;;;;;;;16.15;70.48;98315.22;4958670;28;20094;-71
2023/09/09 02:51:48;;;;;;;10.50;9.45;;;;;;;16.14;70.85;98312.78;4942112;28;20031;-72
2023/09/09 02:54:14;;;;;;;12.35;10.35;;;;;;;16.16;70.80;98327.72;4939398;29;20149;-72
2023/09/09 02:56:39;;;;;;;10.85;9.75;;;;;;;16.21;70.63;98324.19;4958447;28;20031;-72
2023/09/09 02:59:05;;;;;;;11.60;10.38;;;;;;;16.18;70.74;98330.16;4939236;29;20054;-72
2023/09/09 03:01:31;;;;;;;10.38;9.35;;;;;;;16.16;70.85;98329.63;4957809;28;20034;-72
2023/09/09 03:03:56;;;;;;;10.57;9.45;;;;;;;16.14;70.48;98323.66;4939122;29;20118;-72
2023/09/09 03:06:21;;;;;;;12.95;9.77;;;;;;;16.12;70.74;98332.09;4960370;28;20046;-71
2023/09/09 03:08:47;;;;;;;11.98;10.27;;;;;;;16.13;71.39;98327.44;4945407;28;20047;-72
2023/09/09 03:11:12;;;;;;;12.63;11.18;;;;;;;16.02;71.10;98307.66;4958360;28;20030;-72
2023/09/09 03:13:38;;;;;;;13.27;11.27;;;;;;;16.10;71.34;98328.84;4938840;29;20688;-72
2023/09/09 03:16:03;;;;;;;13.02;11.10;;;;;;;16.08;71.57;98325.56;4938326;29;20570;-72
2023/09/09 03:18:29;;;;;;;13.55;11.73;;;;;;;16.06;71.68;98327.75;4954977;29;20087;-72
2023/09/09 03:20:54;;;;;;;14.35;12.48;;;;;;;16.04;71.91;98321.78;4955779;28;20027;-72
2023/09/09 03:23:20;;;;;;;13.40;12.05;;;;;;;15.99;72.06;98310.09;4957802;28;20039;-74
2023/09/09 03:25:45;;;;;;;13.55;12.30;;;;;;;15.91;72.02;98308.78;4942008;28;20120;-72
2023/09/09 03:28:11;;;;;;;14.10;12.70;;;;;;;15.78;73.06;98320.22;4941980;28;20054;-72
2023/09/09 03:30:56;;;;;;;17.27;15.52;;;;;;;15.55;73.38;98320.78;4941745;28;20031;-72
2023/09/09 03:33:27;;;;;;;14.70;13.25;;;;;;;15.58;73.67;98331.13;4938926;29;20561;-72
2023/09/09 03:35:53;;;;;;;15.45;13.80;;;;;;;15.56;73.94;98325.16;4942026;28;20417;-72
2023/09/09 03:38:18;;;;;;;15.05;12.52;;;;;;;15.46;74.07;98322.44;4941667;28;20552;-72
2023/09/09 03:40:44;;;;;;;13.52;12.15;;;;;;;15.50;73.55;98318.09;4941689;28;20031;-73
2023/09/09 03:43:09;;;;;;;15.60;13.68;;;;;;;15.54;73.36;98332.75;4957411;28;20027;-72
2023/09/09 03:45:35;;;;;;;15.63;14.13;;;;;;;15.41;73.90;98316.97;4922577;29;20047;-72
2023/09/09 03:48:03;;;;;;;15.75;14.05;;;;;;;15.37;74.29;98318.59;4941645;28;20069;-72
2023/09/09 03:50:28;;;;;;;16.55;14.35;;;;;;;15.37;74.44;98335.72;4941664;28;20447;-72
2023/09/09 03:52:53;;;;;;;14.88;13.27;;;;;;;15.30;74.02;98334.34;4957420;28;20581;-72
2023/09/09 03:55:19;;;;;;;15.88;14.38;;;;;;;15.17;74.18;98325.66;4974735;28;20384;-72
2023/09/09 03:57:45;;;;;;;16.65;14.93;;;;;;;15.26;74.21;98347.66;4957147;28;20393;-72
2023/09/09 04:00:11;;;;;;;13.70;12.25;;;;;;;15.23;74.09;98343.59;4957439;28;20066;-72
2023/09/09 04:02:39;;;;;;;15.25;13.75;;;;;;;15.23;73.80;98350.91;4975021;28;20035;-72
2023/09/09 04:05:07;;;;;;;18.60;16.67;;;;;;;15.08;74.57;98338.13;4925960;28;20063;-72
2023/09/09 04:07:35;;;;;;;21.23;18.95;;;;;;;14.96;75.87;98353.06;4941092;28;20019;-72
2023/09/09 04:10:05;;;;;;;19.90;17.90;;;;;;;14.98;75.50;98354.38;4941662;28;20038;-72
2023/09/09 04:12:31;;;;;;;18.90;17.00;;;;;;;14.94;75.41;98358.72;4956460;28;20712;-72
2023/09/09 04:14:57;;;;;;;15.10;13.50;;;;;;;14.82;75.74;98341.09;4941190;28;20030;-72
2023/09/09 04:17:23;;;;;;;14.40;13.10;;;;;;;14.96;75.57;98356.56;4941258;28;20026;-72
2023/09/09 04:19:48;;;;;;;14.48;13.00;;;;;;;14.89;75.36;98345.16;4941177;28;20035;-72
2023/09/09 04:22:14;;;;;;;15.35;12.35;;;;;;;15.02;75.29;98360.91;4956457;28;20390;-72
2023/09/09 04:24:39;;;;;;;15.60;12.75;;;;;;;14.96;75.43;98345.72;4921783;29;20098;-72
2023/09/09 04:27:05;;;;;;;14.82;13.07;;;;;;;15.08;75.08;98357.13;4936254;28;20037;-72
2023/09/09 04:29:30;;;;;;;15.02;13.27;;;;;;;15.01;74.95;98340.28;4940788;28;20035;-72
2023/09/09 04:31:56;;;;;;;14.20;12.88;;;;;;;15.06;74.99;98351.16;4956286;28;20118;-72
2023/09/09 04:34:21;;;;;;;14.13;12.77;;;;;;;15.04;74.94;98342.47;4937596;29;20027;-72
2023/09/09 04:36:47;;;;;;;13.77;12.43;;;;;;;15.11;74.80;98347.63;4934546;28;20551;-72
2023/09/09 04:39:15;;;;;;;13.65;12.32;;;;;;;15.09;74.65;98339.78;4937912;29;20035;-72
2023/09/09 04:41:44;;;;;;;13.07;11.77;;;;;;;15.17;74.82;98352.78;4969347;28;20041;-72
2023/09/09 04:44:11;;;;;;;15.63;13.30;;;;;;;15.17;75.05;98351.97;4937477;29;20034;-72
2023/09/09 04:46:37;;;;;;;15.65;13.95;;;;;;;15.23;75.20;98357.16;4952408;28;20106;-71
2023/09/09 04:49:03;;;;;;;16.08;14.10;;;;;;;15.22;75.19;98354.69;4956434;28;20149;-72
2023/09/09 04:51:29;;;;;;;16.00;14.32;;;;;;;15.31;75.67;98357.69;4938959;28;20031;-72
2023/09/09 04:53:56;;;;;;;15.63;14.02;;;;;;;15.28;75.34;98359.06;4937374;29;20031;-71
2023/09/09 04:56:22;;;;;;;15.88;14.18;;;;;;;15.24;75.75;98347.91;4953138;29;20106;-72
2023/09/09 04:58:47;;;;;;;16.02;14.40;;;;;;;15.33;75.95;98350.09;4945839;28;20125;-72
2023/09/09 05:01:13;;;;;;;16.58;14.88;;;;;;;15.34;76.25;98351.72;4973069;28;20049;-72
2023/09/09 05:03:38;;;;;;;16.88;14.43;;;;;;;15.43;76.31;98361.75;4936732;29;20062;-72
2023/09/09 05:06:04;;;;;;;15.07;12.98;;;;;;;15.41;76.42;98344.13;4969230;28;20023;-72
2023/09/09 05:08:29;;;;;;;15.82;14.23;;;;;;;15.55;76.73;98372.38;4955341;28;20430;-72
2023/09/09 05:10:55;;;;;;;17.15;15.15;;;;;;;15.52;76.61;98372.94;4940505;28;20037;-74
2023/09/09 05:13:20;;;;;;;16.02;14.32;;;;;;;15.48;76.22;98358.25;4940286;28;20065;-71
2023/09/09 05:15:47;;;;;;;15.75;13.80;;;;;;;15.51;76.17;98360.44;4956288;28;20086;-71
2023/09/09 05:18:13;;;;;;;18.05;14.13;;;;;;;15.50;75.84;98372.38;4955922;28;20374;-72
2023/09/09 05:20:38;;;;;;;17.98;15.75;;;;;;;15.46;75.66;98366.69;4939927;28;20033;-71
2023/09/09 05:23:04;;;;;;;16.13;14.50;;;;;;;15.37;75.52;98353.88;4939657;28;20073;-72
2023/09/09 05:25:29;;;;;;;15.43;13.70;;;;;;;15.45;75.72;98369.69;4939831;28;20379;-72
2023/09/09 05:27:55;;;;;;;17.23;15.40;;;;;;;15.35;75.42;98356.88;4973089;28;20107;-71
2023/09/09 05:30:20;;;;;;;18.77;15.15;;;;;;;15.48;75.71;98358.25;4924100;28;20027;-71
2023/09/09 05:32:46;;;;;;;17.00;14.95;;;;;;;15.49;75.44;98354.47;4939566;28;20050;-71
2023/09/09 05:35:11;;;;;;;15.82;14.23;;;;;;;15.63;75.58;98360.97;4939592;28;20498;-72
2023/09/09 05:37:38;;;;;;;18.65;15.68;;;;;;;15.70;75.77;98369.66;4950926;28;20118;-71
2023/09/09 05:40:04;;;;;;;17.17;15.38;;;;;;;15.78;75.85;98379.97;4938011;28;20027;-72
2023/09/09 05:42:29;;;;;;;15.93;14.20;;;;;;;15.82;75.93;98367.47;4955542;28;20027;-71
2023/09/09 05:44:55;;;;;;;16.70;15.00;;;;;;;15.97;76.03;98374.78;4939683;28;20118;-72
2023/09/09 05:47:20;;;;;;;18.95;16.17;;;;;;;15.99;76.09;98361.72;4936437;29;20506;-72
2023/09/09 05:49:46;;;;;;;18.20;16.42;;;;;;;16.05;76.56;98375.03;4921935;28;20051;-72
2023/09/09 05:52:12;;;;;;;17.40;15.70;;;;;;;16.11;76.50;98373.94;4923364;28;20038;-72
2023/09/09 05:54:38;;;;;;;15.77;14.18;;;;;;;16.10;75.59;98366.88;4939573;28;20031;-71
2023/09/09 05:57:05;;;;;;;16.70;14.80;;;;;;;16.21;75.69;98378.53;4939617;28;20125;-72
2023/09/09 05:59:30;;;;;;;16.20;14.57;;;;;;;16.22;76.14;98380.16;4939471;28;20065;-72
2023/09/09 06:01:56;;;;;;;17.23;15.52;;;;;;;16.30;75.69;98377.69;4939164;28;20045;-72
2023/09/09 06:04:21;;;;;;;18.83;16.17;;;;;;;16.36;75.98;98365.69;4955193;28;20034;-71
2023/09/09 06:06:48;;;;;;;21.05;17.15;;;;;;;16.54;75.77;98367.84;4923585;28;20077;-72
2023/09/09 06:09:13;;;;;;;19.77;16.75;;;;;;;16.51;75.85;98356.72;4939371;28;20694;-72
2023/09/09 06:11:40;;;;;;;18.95;16.95;;;;;;;16.63;76.41;98375.41;4935674;29;20099;-72
2023/09/09 06:14:05;;;;;;;19.15;17.17;;;;;;;16.70;76.29;98373.22;4949411;28;20033;-72
2023/09/09 06:16:31;;;;;;;18.75;16.73;;;;;;;16.83;76.16;98381.56;4939231;28;20496;-72
2023/09/09 06:18:57;;;;;;;18.45;16.55;;;;;;;16.83;75.41;98364.44;4924294;28;20026;-72
2023/09/09 06:21:22;;;;;;;17.65;15.85;;;;;;;16.91;75.99;98382.91;4939585;29;20039;-72
2023/09/09 06:23:48;;;;;;;18.65;15.63;;;;;;;16.95;76.21;98383.97;4954088;28;20119;-72
2023/09/09 06:26:13;;;;;;;17.83;15.93;;;;;;;17.02;76.20;98395.34;4942976;28;20027;-72
2023/09/09 06:28:39;;;;;;;18.13;16.20;;;;;;;17.05;76.39;98394.78;4958686;28;20066;-71
2023/09/09 06:31:04;;;;;;;19.15;16.40;;;;;;;17.14;76.25;98398.53;4942635;28;20038;-72
2023/09/09 06:33:31;;;;;;;17.52;15.68;;;;;;;17.24;76.42;98393.03;4958598;28;20540;-72
2023/09/09 06:35:56;;;;;;;17.13;15.25;;;;;;;17.30;76.09;98397.34;4942641;28;20119;-72
2023/09/09 06:38:23;;;;;;;16.67;14.85;;;;;;;17.39;75.98;98406.53;4941046;28;20030;-72
2023/09/09 06:40:49;;;;;;;19.17;15.95;;;;;;;17.31;76.24;98387.28;4958500;28;20039;-72
2023/09/09 06:43:18;;;;;;;17.70;15.90;;;;;;;17.37;76.05;98376.06;4976267;28;20053;-71
2023/09/09 06:45:43;;;;;;;16.65;14.85;;;;;;;17.51;76.06;98404.31;4958786;28;20773;-72
2023/09/09 06:48:08;;;;;;;15.80;14.20;;;;;;;17.55;76.19;98399.91;4940495;28;20023;-72
2023/09/09 06:50:34;;;;;;;16.75;14.48;;;;;;;17.61;76.13;98408.88;4975906;28;20041;-72
2023/09/09 06:52:59;;;;;;;15.35;13.85;;;;;;;17.53;75.86;98380.31;4975422;28;20022;-72
2023/09/09 06:55:25;;;;;;;17.90;14.43;;;;;;;17.70;75.89;98404.44;4958314;28;20470;-72
2023/09/09 06:57:50;;;;;;;15.85;13.88;;;;;;;17.80;75.40;98407.91;4958282;28;20030;-71
2023/09/09 07:00:16;;;;;;;15.45;13.43;;;;;;;17.91;75.37;98420.34;4958276;28;20042;-71
2023/09/09 07:02:42;;;;;;;17.20;14.55;;;;;;;17.94;75.14;98411.59;4957869;28;20073;-71
2023/09/09 07:05:07;;;;;;;15.73;14.05;;;;;;;18.00;75.06;98411.50;4938931;29;20047;-71
2023/09/09 07:07:33;;;;;;;17.92;13.93;;;;;;;18.06;75.13;98405.75;4952804;28;20027;-74
2023/09/09 07:09:58;;;;;;;14.48;12.95;;;;;;;18.24;74.70;98406.94;4942185;28;20042;-73
2023/09/09 07:12:24;;;;;;;15.40;13.85;;;;;;;18.33;73.89;98405.19;4975063;28;20031;-73
2023/09/09 07:14:49;;;;;;;14.73;13.15;;;;;;;18.42;73.93;98398.00;4981307;28;20555;-73
2023/09/09 07:17:15;;;;;;;15.02;13.00;;;;;;;18.62;73.71;98411.44;4980527;28;20035;-73
2023/09/09 07:19:40;;;;;;;16.75;13.43;;;;;;;18.74;73.93;98408.31;4970128;28;20042;-73
2023/09/09 07:22:06;;;;;;;14.13;12.57;;;;;;;18.85;73.85;98412.53;4957849;28;20077;-73
2023/09/09 07:24:31;;;;;;;13.90;12.05;;;;;;;18.91;74.09;98406.72;4958388;28;20490;-73
2023/09/09 07:26:59;;;;;;;14.18;12.35;;;;;;;18.93;73.54;98392.75;4957953;28;20471;-73
2023/09/09 07:29:24;;;;;;;13.02;11.68;;;;;;;19.10;73.23;98410.28;4941949;28;20046;-73
2023/09/09 07:31:50;;;;;;;14.10;11.55;;;;;;;19.12;73.38;98394.41;4957267;28;20026;-73
2023/09/09 07:34:15;;;;;;;12.43;11.00;;;;;;;19.15;73.18;98393.81;4975491;28;20039;-73
2023/09/09 07:36:41;;;;;;;12.30;11.10;;;;;;;19.14;73.13;98369.53;4957944;28;20524;-74
2023/09/09 07:39:07;;;;;;;13.95;11.00;;;;;;;19.52;72.66;98405.88;4942089;28;20379;-74
2023/09/09 07:41:32;;;;;;;12.73;11.43;;;;;;;19.51;72.62;98396.84;4938184;29;20028;-73
2023/09/09 07:43:58;;;;;;;11.63;10.35;;;;;;;19.58;72.58;98393.75;4963008;28;20082;-74
2023/09/09 07:46:23;;;;;;;12.60;10.88;;;;;;;19.78;72.33;98394.25;4957333;28;20022;-73
2023/09/09 07:48:48;;;;;;;13.80;10.77;;;;;;;19.88;72.20;98399.50;4957716;28;20462;-73
2023/09/09 07:51:14;;;;;;;12.57;10.07;;;;;;;20.03;71.54;98395.72;4974517;28;20030;-73
2023/09/09 07:53:39;;;;;;;11.60;10.25;;;;;;;20.10;70.83;98385.19;4958049;28;20115;-74
2023/09/09 07:56:05;;;;;;;12.20;9.65;;;;;;;20.18;70.35;98403.66;4925819;28;20105;-72
2023/09/09 07:58:30;;;;;;;11.52;9.55;;;;;;;20.34;70.22;98396.81;4957977;28;20046;-71
2023/09/09 08:01:03;;;;;;;10.80;9.35;;;;;;;20.40;69.73;98386.56;4941411;28;20050;-74
2023/09/09 08:03:29;;;;;;;12.13;9.45;;;;;;;20.58;69.86;98393.91;4957812;28;20133;-72
2023/09/09 08:05:56;;;;;;;11.45;9.13;;;;;;;20.68;69.05;98389.00;4957272;28;20486;-74
2023/09/09 08:08:21;;;;;;;11.75;8.93;;;;;;;20.84;68.78;98400.44;4957297;28;20473;-73
2023/09/09 08:10:48;;;;;;;10.52;9.38;;;;;;;20.89;68.13;98391.31;4956805;28;20033;-74
2023/09/09 08:13:13;;;;;;;12.30;9.00;;;;;;;21.10;67.65;98408.97;4957193;28;20035;-71
2023/09/09 08:15:39;;;;;;;12.45;9.10;;;;;;;21.13;67.50;98402.88;4957056;28;20023;-72
2023/09/09 08:18:04;;;;;;;10.18;9.18;;;;;;;21.27;67.35;98401.75;4974110;28;20043;-72
2023/09/09 08:20:29;;;;;;;9.90;8.65;;;;;;;21.28;66.78;98399.81;4957004;28;20019;-72
2023/09/09 08:22:55;;;;;;;12.07;8.55;;;;;;;21.34;66.64;98406.78;4956541;28;20043;-72
2023/09/09 08:25:20;;;;;;;10.57;8.10;;;;;;;21.50;66.22;98410.78;4974306;28;20023;-71
2023/09/09 08:27:45;;;;;;;13.48;7.82;;;;;;;21.58;65.62;98387.31;4956810;28;20042;-72
2023/09/09 08:30:11;;;;;;;12.07;9.35;;;;;;;21.80;65.75;98404.56;4956704;28;20115;-72
2023/09/09 08:32:36;;;;;;;9.77;8.63;;;;;;;21.89;64.97;98400.00;4956846;28;20066;-71
2023/09/09 08:35:03;;;;;;;11.48;8.65;;;;;;;22.06;64.49;98414.94;4956720;28;20022;-72
2023/09/09 08:37:28;;;;;;;10.40;8.00;;;;;;;22.18;63.62;98410.50;4940980;28;20046;-72
2023/09/09 08:39:54;;;;;;;10.40;8.55;;;;;;;22.20;63.11;98393.72;4956567;28;20038;-72
2023/09/09 08:42:31;;;;;;;8.90;7.95;;;;;;;22.40;62.15;98415.97;4974520;28;20058;-72
2023/09/09 08:45:09;;;;;;;10.80;7.70;;;;;;;22.54;61.66;98410.38;4927000;28;20081;-72
2023/09/09 08:47:36;;;;;;;8.73;7.82;;;;;;;22.58;62.03;98394.88;4956942;28;20501;-72
2023/09/09 08:50:03;;;;;;;10.68;7.90;;;;;;;22.69;61.73;98407.22;4956447;28;20037;-72
2023/09/09 08:52:28;;;;;;;10.93;8.07;;;;;;;22.84;60.37;98409.53;4973511;28;20045;-74
2023/09/09 08:54:55;;;;;;;10.05;7.32;;;;;;;22.87;59.96;98405.34;4924938;28;20027;-72
2023/09/09 08:57:20;;;;;;;9.70;7.25;;;;;;;23.08;59.29;98415.38;4956920;28;20434;-73
2023/09/09 08:59:47;;;;;;;8.65;7.63;;;;;;;23.12;59.82;98419.13;4974032;28;20042;-73
2023/09/09 09:02:12;;;;;;;10.27;8.10;;;;;;;23.18;59.85;98415.09;4956469;28;20497;-73
2023/09/09 09:04:38;;;;;;;9.13;8.18;;;;;;;23.27;59.62;98413.16;4956192;28;20030;-73
2023/09/09 09:07:05;;;;;;;10.05;7.47;;;;;;;23.38;59.09;98411.75;4956417;28;20089;-73
2023/09/09 09:09:30;;;;;;;9.30;8.38;;;;;;;23.51;59.35;98411.91;4956063;28;20493;-73
2023/09/09 09:11:59;;;;;;;9.60;7.82;;;;;;;23.63;58.77;98420.34;4955587;28;20069;-73
2023/09/09 09:14:24;;;;;;;7.60;6.90;;;;;;;23.74;56.86;98414.19;4936975;29;20031;-73
2023/09/09 09:16:50;;;;;;;10.40;8.25;;;;;;;23.83;56.64;98414.16;4939892;28;20038;-73
2023/09/09 09:19:36;;;;;;;8.48;7.68;;;;;;;23.82;56.26;98402.38;4956130;28;20039;-73
2023/09/09 09:22:01;;;;;;;10.77;8.30;;;;;;;23.91;57.65;98405.94;4972966;28;20042;-73
2023/09/09 09:24:27;;;;;;;10.85;7.63;;;;;;;24.09;56.75;98412.22;4940164;28;20054;-73
2023/09/09 09:26:54;;;;;;;9.30;7.72;;;;;;;24.12;56.20;98411.56;4955668;28;20494;-73
2023/09/09 09:29:20;;;;;;;10.35;7.78;;;;;;;24.12;56.60;98395.06;4924146;28;20027;-73
2023/09/09 09:31:53;;;;;;;11.18;7.65;;;;;;;24.19;56.05;98402.81;4973047;28;20049;-73
2023/09/09 09:34:19;;;;;;;9.05;7.55;;;;;;;24.26;56.08;98392.91;4939669;28;20030;-73
2023/09/09 09:36:45;;;;;;;8.82;7.93;;;;;;;24.37;55.67;98410.69;4939718;28;20019;-73
2023/09/09 09:39:11;;;;;;;8.35;7.38;;;;;;;24.33;55.66;98395.97;4955851;28;20053;-73
2023/09/09 09:41:39;;;;;;;8.55;7.72;;;;;;;24.55;54.29;98401.22;4955391;28;20362;-73
2023/09/09 09:44:16;;;;;;;10.27;7.32;;;;;;;24.63;54.57;98389.38;4955566;28;20034;-73
2023/09/09 09:46:42;;;;;;;8.55;7.40;;;;;;;24.81;54.26;98401.13;4939516;28;20780;-73
2023/09/09 09:49:08;;;;;;;10.10;7.13;;;;;;;24.92;52.83;98398.81;4955678;28;20026;-73
2023/09/09 09:51:43;;;;;;;9.52;7.60;;;;;;;24.97;53.96;98393.91;4939492;28;20039;-73
2023/09/09 09:54:09;;;;;;;8.20;7.40;;;;;;;25.07;52.93;98392.72;4937211;29;20070;-73
2023/09/09 09:56:37;;;;;;;10.07;8.18;;;;;;;25.14;52.22;98393.00;4975073;28;20113;-72
2023/09/09 09:59:02;;;;;;;10.65;7.65;;;;;;;25.03;53.28;98383.53;4960032;28;20027;-73
2023/09/09 10:01:29;;;;;;;11.05;7.88;;;;;;;25.21;53.15;98387.75;4943784;28;20697;-73
2023/09/09 10:04:05;;;;;;;7.95;7.15;;;;;;;25.20;52.54;98369.63;4943789;28;20039;-73
2023/09/09 10:06:33;;;;;;;10.60;8.05;;;;;;;25.24;52.22;98392.63;4943526;28;20065;-73
2023/09/09 10:09:11;;;;;;;9.75;7.75;;;;;;;25.34;51.62;98384.75;4959443;28;20113;-73
2023/09/09 10:11:41;;;;;;;8.88;7.80;;;;;;;25.46;51.71;98388.75;4943133;28;20039;-73
2023/09/09 10:14:14;;;;;;;9.25;7.32;;;;;;;25.51;51.33;98394.88;4942020;28;20071;-72
2023/09/09 10:16:41;;;;;;;11.98;7.88;;;;;;;25.54;51.63;98369.38;4959386;28;20513;-73
2023/09/09 10:19:08;;;;;;;10.25;7.38;;;;;;;25.72;51.21;98378.31;4959469;28;20022;-73
2023/09/09 10:21:34;;;;;;;9.10;7.30;;;;;;;25.94;51.84;98386.22;4939652;29;20046;-73
2023/09/09 10:24:01;;;;;;;8.38;7.55;;;;;;;26.07;51.59;98366.59;4956094;28;20027;-73
2023/09/09 10:26:27;;;;;;;8.20;7.10;;;;;;;26.21;50.64;98382.84;4959604;28;20495;-73
2023/09/09 10:28:53;;;;;;;9.27;7.65;;;;;;;26.38;50.59;98376.34;4943143;28;20033;-73
2023/09/09 10:31:19;;;;;;;9.25;7.60;;;;;;;26.43;50.00;98362.31;4958524;28;20049;-73
2023/09/09 10:33:47;;;;;;;10.93;7.57;;;;;;;26.52;49.74;98371.28;4958922;28;20031;-73
2023/09/09 10:36:14;;;;;;;9.70;7.47;;;;;;;26.58;49.98;98369.94;4939385;29;20031;-73
2023/09/09 10:38:39;;;;;;;10.48;8.20;;;;;;;26.73;49.12;98366.47;4943727;28;20454;-73
2023/09/09 10:41:06;;;;;;;9.32;7.32;;;;;;;26.79;48.80;98359.59;4940040;29;20562;-73
2023/09/09 10:43:31;;;;;;;9.07;7.32;;;;;;;26.86;49.12;98348.78;4956427;28;20027;-73
2023/09/09 10:45:57;;;;;;;8.27;7.38;;;;;;;27.05;48.96;98357.25;4976164;28;20096;-73
2023/09/09 10:48:24;;;;;;;8.15;7.07;;;;;;;27.16;48.68;98352.06;4959187;28;20105;-73
2023/09/09 10:50:52;;;;;;;8.57;7.50;;;;;;;27.25;48.73;98356.31;4958133;28;20045;-73
2023/09/09 10:53:28;;;;;;;9.40;7.18;;;;;;;27.32;48.37;98351.00;4958305;28;20524;-73
2023/09/09 10:55:55;;;;;;;7.63;6.75;;;;;;;27.34;47.38;98343.13;4942291;28;20031;-73
2023/09/09 10:58:32;;;;;;;11.90;7.43;;;;;;;27.42;47.99;98350.50;4976141;28;20509;-73
2023/09/09 11:00:59;;;;;;;9.40;7.45;;;;;;;27.52;47.37;98359.47;4941993;28;20089;-73
2023/09/09 11:03:28;;;;;;;8.63;7.63;;;;;;;27.55;47.25;98351.28;4958960;28;20026;-73
2023/09/09 11:06:07;;;;;;;11.38;7.57;;;;;;;27.40;46.85;98347.28;4941626;28;20545;-73
2023/09/09 11:08:44;;;;;;;8.98;7.82;;;;;;;27.49;46.95;98346.34;4958704;28;20034;-73
2023/09/09 11:11:18;;;;;;;8.73;7.30;;;;;;;27.62;47.23;98358.97;4958525;28;20043;-73
2023/09/09 11:13:51;;;;;;;7.70;7.00;;;;;;;27.69;47.19;98348.09;4952825;29;20549;-73
2023/09/09 11:16:37;;;;;;;9.35;7.43;;;;;;;27.85;47.49;98346.19;4975261;28;20066;-72
2023/09/09 11:19:12;;;;;;;9.38;7.10;;;;;;;28.10;46.70;98364.31;4975212;28;20109;-73
2023/09/09 11:22:00;;;;;;;8.30;7.50;;;;;;;28.26;46.58;98362.38;4974952;28;20086;-73
2023/09/09 11:24:26;;;;;;;10.68;7.68;;;;;;;28.20;46.83;98358.25;4962167;28;20050;-74